sensor_id;sensor_type;location;lat;lon;timestamp;P1;durP1;ratioP1;P2;durP2;ratioP2
33792;SDS011;20105;48.764;9.178;2022-10-26T00:02:18;6.00;;;2.27;;
33792;SDS011;20105;48.764;9.178;2022-10-26T00:04:43;5.93;;;2.33;;
33792;SDS011;20105;48.764;9.178;2022-10-26T00:07:09;3.90;;;2.50;;
33792;SDS011;20105;48.764;9.178;2022-10-26T00:09:35;2.20;;;2.00;;
33792;SDS011;20105;48.764;9.178;2022-10-26T00:12:01;3.80;;;2.43;;
33792;SDS011;20105;48.764;9.178;2022-10-26T00:14:27;4.55;;;2.45;;
33792;SDS011;20105;48.764;9.178;2022-10-26T00:16:53;4.40;;;3.03;;
33792;SDS011;20105;48.764;9.178;2022-10-26T00:19:19;2.10;;;1.73;;
33792;SDS011;20105;48.764;9.178;2022-10-26T00:21:44;5.40;;;2.97;;
33792;SDS011;20105;48.764;9.178;2022-10-26T00:24:10;3.43;;;2.30;;
33792;SDS011;20105;48.764;9.178;2022-10-26T00:26:36;4.47;;;2.83;;
33792;SDS011;20105;48.764;9.178;2022-10-26T00:29:02;7.43;;;3.40;;
33792;SDS011;20105;48.764;9.178;2022-10-26T00:31:28;6.93;;;2.58;;
33792;SDS011;20105;48.764;9.178;2022-10-26T00:33:54;4.07;;;2.33;;
33792;SDS011;20105;48.764;9.178;2022-10-26T00:36:21;6.75;;;3.05;;
33792;SDS011;20105;48.764;9.178;2022-10-26T00:38:48;2.83;;;2.50;;
33792;SDS011;20105;48.764;9.178;2022-10-26T00:41:16;4.35;;;2.30;;
33792;SDS011;20105;48.764;9.178;2022-10-26T00:43:43;2.70;;;2.40;;
33792;SDS011;20105;48.764;9.178;2022-10-26T00:46:11;5.80;;;3.28;;
33792;SDS011;20105;48.764;9.178;2022-10-26T00:48:49;4.20;;;2.53;;
33792;SDS011;20105;48.764;9.178;2022-10-26T00:51:26;10.75;;;2.92;;
33792;SDS011;20105;48.764;9.178;2022-10-26T00:54:07;2.53;;;2.10;;
33792;SDS011;20105;48.764;9.178;2022-10-26T00:56:35;4.25;;;2.65;;
33792;SDS011;20105;48.764;9.178;2022-10-26T00:59:03;7.07;;;2.37;;
33792;SDS011;20105;48.764;9.178;2022-10-26T01:01:32;5.30;;;2.72;;
33792;SDS011;20105;48.764;9.178;2022-10-26T01:04:00;3.50;;;2.47;;
33792;SDS011;20105;48.764;9.178;2022-10-26T01:06:27;4.00;;;2.40;;
33792;SDS011;20105;48.764;9.178;2022-10-26T01:08:54;5.90;;;2.10;;
33792;SDS011;20105;48.764;9.178;2022-10-26T01:11:19;2.63;;;1.97;;
33792;SDS011;20105;48.764;9.178;2022-10-26T01:13:45;4.50;;;2.33;;
33792;SDS011;20105;48.764;9.178;2022-10-26T01:16:20;2.33;;;1.85;;
33792;SDS011;20105;48.764;9.178;2022-10-26T01:21:45;2.20;;;2.00;;
33792;SDS011;20105;48.764;9.178;2022-10-26T01:29:49;4.53;;;2.15;;
33792;SDS011;20105;48.764;9.178;2022-10-26T01:32:39;4.20;;;2.20;;
33792;SDS011;20105;48.764;9.178;2022-10-26T01:35:28;4.43;;;2.83;;
33792;SDS011;20105;48.764;9.178;2022-10-26T01:38:01;3.42;;;2.20;;
33792;SDS011;20105;48.764;9.178;2022-10-26T01:43:01;2.35;;;2.15;;
33792;SDS011;20105;48.764;9.178;2022-10-26T01:45:31;4.35;;;2.47;;
33792;SDS011;20105;48.764;9.178;2022-10-26T01:47:58;6.75;;;2.72;;
33792;SDS011;20105;48.764;9.178;2022-10-26T01:50:26;2.83;;;1.80;;
33792;SDS011;20105;48.764;9.178;2022-10-26T01:52:51;2.23;;;2.10;;
33792;SDS011;20105;48.764;9.178;2022-10-26T01:58:06;4.57;;;2.55;;
33792;SDS011;20105;48.764;9.178;2022-10-26T02:00:52;2.35;;;2.15;;
33792;SDS011;20105;48.764;9.178;2022-10-26T02:03:29;6.53;;;2.73;;
33792;SDS011;20105;48.764;9.178;2022-10-26T02:06:08;3.50;;;2.47;;
33792;SDS011;20105;48.764;9.178;2022-10-26T02:08:50;4.40;;;2.20;;
33792;SDS011;20105;48.764;9.178;2022-10-26T02:19:33;3.00;;;2.60;;
33792;SDS011;20105;48.764;9.178;2022-10-26T02:22:15;2.25;;;2.05;;
33792;SDS011;20105;48.764;9.178;2022-10-26T02:24:55;5.47;;;2.47;;
33792;SDS011;20105;48.764;9.178;2022-10-26T02:27:25;3.60;;;2.50;;
33792;SDS011;20105;48.764;9.178;2022-10-26T02:29:55;6.35;;;2.00;;
33792;SDS011;20105;48.764;9.178;2022-10-26T02:32:23;4.27;;;2.30;;
33792;SDS011;20105;48.764;9.178;2022-10-26T02:34:51;2.20;;;2.00;;
33792;SDS011;20105;48.764;9.178;2022-10-26T02:37:20;2.72;;;2.10;;
33792;SDS011;20105;48.764;9.178;2022-10-26T02:39:48;5.38;;;2.35;;
33792;SDS011;20105;48.764;9.178;2022-10-26T02:42:16;6.22;;;2.72;;
33792;SDS011;20105;48.764;9.178;2022-10-26T02:44:45;4.40;;;2.65;;
33792;SDS011;20105;48.764;9.178;2022-10-26T02:47:27;4.32;;;2.13;;
33792;SDS011;20105;48.764;9.178;2022-10-26T02:49:53;2.22;;;2.10;;
33792;SDS011;20105;48.764;9.178;2022-10-26T02:52:22;10.65;;;2.40;;
33792;SDS011;20105;48.764;9.178;2022-10-26T02:57:21;5.55;;;2.90;;
33792;SDS011;20105;48.764;9.178;2022-10-26T03:00:03;2.47;;;2.28;;
33792;SDS011;20105;48.764;9.178;2022-10-26T03:02:30;6.18;;;2.67;;
33792;SDS011;20105;48.764;9.178;2022-10-26T03:04:56;3.97;;;2.10;;
33792;SDS011;20105;48.764;9.178;2022-10-26T03:07:35;2.20;;;2.10;;
33792;SDS011;20105;48.764;9.178;2022-10-26T03:10:00;3.83;;;1.60;;
33792;SDS011;20105;48.764;9.178;2022-10-26T03:12:26;6.10;;;2.40;;
33792;SDS011;20105;48.764;9.178;2022-10-26T03:14:51;7.43;;;3.40;;
33792;SDS011;20105;48.764;9.178;2022-10-26T03:17:17;4.23;;;2.60;;
33792;SDS011;20105;48.764;9.178;2022-10-26T03:19:42;13.20;;;2.33;;
33792;SDS011;20105;48.764;9.178;2022-10-26T03:22:08;3.87;;;2.20;;
33792;SDS011;20105;48.764;9.178;2022-10-26T03:24:33;2.30;;;2.10;;
33792;SDS011;20105;48.764;9.178;2022-10-26T03:26:59;6.03;;;2.20;;
33792;SDS011;20105;48.764;9.178;2022-10-26T03:29:25;5.60;;;2.30;;
33792;SDS011;20105;48.764;9.178;2022-10-26T03:31:51;4.73;;;2.30;;
33792;SDS011;20105;48.764;9.178;2022-10-26T03:34:19;3.70;;;2.42;;
33792;SDS011;20105;48.764;9.178;2022-10-26T03:36:45;2.20;;;2.00;;
33792;SDS011;20105;48.764;9.178;2022-10-26T03:39:11;2.43;;;1.83;;
33792;SDS011;20105;48.764;9.178;2022-10-26T03:41:36;7.93;;;1.73;;
33792;SDS011;20105;48.764;9.178;2022-10-26T03:44:02;1.30;;;1.20;;
33792;SDS011;20105;48.764;9.178;2022-10-26T03:46:27;4.47;;;2.00;;
33792;SDS011;20105;48.764;9.178;2022-10-26T03:48:53;4.40;;;1.80;;
33792;SDS011;20105;48.764;9.178;2022-10-26T03:51:19;2.43;;;2.10;;
33792;SDS011;20105;48.764;9.178;2022-10-26T03:53:44;2.33;;;2.10;;
33792;SDS011;20105;48.764;9.178;2022-10-26T03:56:10;9.00;;;1.80;;
33792;SDS011;20105;48.764;9.178;2022-10-26T03:58:35;2.23;;;1.50;;
33792;SDS011;20105;48.764;9.178;2022-10-26T04:01:01;1.87;;;1.50;;
33792;SDS011;20105;48.764;9.178;2022-10-26T04:03:27;1.73;;;1.60;;
33792;SDS011;20105;48.764;9.178;2022-10-26T04:05:52;3.20;;;1.40;;
33792;SDS011;20105;48.764;9.178;2022-10-26T04:08:18;2.60;;;1.43;;
33792;SDS011;20105;48.764;9.178;2022-10-26T04:10:44;4.33;;;1.80;;
33792;SDS011;20105;48.764;9.178;2022-10-26T04:13:10;2.10;;;1.63;;
33792;SDS011;20105;48.764;9.178;2022-10-26T04:15:36;2.10;;;2.00;;
33792;SDS011;20105;48.764;9.178;2022-10-26T04:18:02;1.73;;;1.50;;
33792;SDS011;20105;48.764;9.178;2022-10-26T04:20:28;3.37;;;1.80;;
33792;SDS011;20105;48.764;9.178;2022-10-26T04:22:55;2.60;;;1.43;;
33792;SDS011;20105;48.764;9.178;2022-10-26T04:25:25;2.50;;;1.60;;
33792;SDS011;20105;48.764;9.178;2022-10-26T04:27:51;1.73;;;1.60;;
33792;SDS011;20105;48.764;9.178;2022-10-26T04:30:16;4.33;;;2.10;;
33792;SDS011;20105;48.764;9.178;2022-10-26T04:32:42;3.50;;;1.37;;
33792;SDS011;20105;48.764;9.178;2022-10-26T04:35:08;3.10;;;1.50;;
33792;SDS011;20105;48.764;9.178;2022-10-26T04:37:33;2.10;;;1.87;;
33792;SDS011;20105;48.764;9.178;2022-10-26T04:39:59;2.33;;;1.50;;
33792;SDS011;20105;48.764;9.178;2022-10-26T04:42:25;2.20;;;2.00;;
33792;SDS011;20105;48.764;9.178;2022-10-26T04:44:50;1.90;;;1.60;;
33792;SDS011;20105;48.764;9.178;2022-10-26T04:47:17;2.10;;;1.13;;
33792;SDS011;20105;48.764;9.178;2022-10-26T04:49:42;2.15;;;2.03;;
33792;SDS011;20105;48.764;9.178;2022-10-26T04:52:08;1.63;;;1.50;;
33792;SDS011;20105;48.764;9.178;2022-10-26T04:54:34;3.47;;;1.77;;
33792;SDS011;20105;48.764;9.178;2022-10-26T04:56:59;4.40;;;1.43;;
33792;SDS011;20105;48.764;9.178;2022-10-26T04:59:25;2.10;;;1.60;;
33792;SDS011;20105;48.764;9.178;2022-10-26T05:01:51;1.60;;;1.07;;
33792;SDS011;20105;48.764;9.178;2022-10-26T05:04:16;5.20;;;1.60;;
33792;SDS011;20105;48.764;9.178;2022-10-26T05:06:42;4.90;;;1.70;;
33792;SDS011;20105;48.764;9.178;2022-10-26T05:09:07;2.33;;;1.20;;
33792;SDS011;20105;48.764;9.178;2022-10-26T05:11:33;5.07;;;1.83;;
33792;SDS011;20105;48.764;9.178;2022-10-26T05:13:58;2.93;;;2.17;;
33792;SDS011;20105;48.764;9.178;2022-10-26T05:16:25;3.80;;;1.50;;
33792;SDS011;20105;48.764;9.178;2022-10-26T05:18:50;3.13;;;1.87;;
33792;SDS011;20105;48.764;9.178;2022-10-26T05:21:16;3.83;;;1.57;;
33792;SDS011;20105;48.764;9.178;2022-10-26T05:23:50;2.03;;;1.83;;
33792;SDS011;20105;48.764;9.178;2022-10-26T05:26:18;1.37;;;1.20;;
33792;SDS011;20105;48.764;9.178;2022-10-26T05:28:44;2.57;;;1.70;;
33792;SDS011;20105;48.764;9.178;2022-10-26T05:31:10;1.40;;;1.30;;
33792;SDS011;20105;48.764;9.178;2022-10-26T05:33:35;1.43;;;1.30;;
33792;SDS011;20105;48.764;9.178;2022-10-26T05:36:01;1.60;;;1.50;;
33792;SDS011;20105;48.764;9.178;2022-10-26T05:38:27;1.77;;;1.63;;
33792;SDS011;20105;48.764;9.178;2022-10-26T05:40:53;2.80;;;1.40;;
33792;SDS011;20105;48.764;9.178;2022-10-26T05:43:19;5.90;;;1.93;;
33792;SDS011;20105;48.764;9.178;2022-10-26T05:45:48;1.50;;;1.40;;
33792;SDS011;20105;48.764;9.178;2022-10-26T05:48:14;3.70;;;1.43;;
33792;SDS011;20105;48.764;9.178;2022-10-26T05:50:40;3.53;;;1.80;;
33792;SDS011;20105;48.764;9.178;2022-10-26T05:53:05;5.20;;;2.10;;
33792;SDS011;20105;48.764;9.178;2022-10-26T05:55:31;7.20;;;2.20;;
33792;SDS011;20105;48.764;9.178;2022-10-26T05:57:57;2.87;;;1.93;;
33792;SDS011;20105;48.764;9.178;2022-10-26T06:00:24;4.20;;;1.73;;
33792;SDS011;20105;48.764;9.178;2022-10-26T06:03:07;2.30;;;1.93;;
33792;SDS011;20105;48.764;9.178;2022-10-26T06:05:55;2.30;;;1.50;;
33792;SDS011;20105;48.764;9.178;2022-10-26T06:08:23;3.00;;;1.33;;
33792;SDS011;20105;48.764;9.178;2022-10-26T06:10:51;1.57;;;1.33;;
33792;SDS011;20105;48.764;9.178;2022-10-26T06:13:18;1.90;;;1.40;;
33792;SDS011;20105;48.764;9.178;2022-10-26T06:18:46;1.20;;;1.10;;
33792;SDS011;20105;48.764;9.178;2022-10-26T06:21:40;2.10;;;1.70;;
33792;SDS011;20105;48.764;9.178;2022-10-26T06:32:31;4.30;;;1.50;;
33792;SDS011;20105;48.764;9.178;2022-10-26T06:37:42;2.40;;;2.20;;
33792;SDS011;20105;48.764;9.178;2022-10-26T06:40:10;2.60;;;1.40;;
33792;SDS011;20105;48.764;9.178;2022-10-26T06:42:40;4.93;;;1.77;;
33792;SDS011;20105;48.764;9.178;2022-10-26T06:45:09;1.80;;;1.40;;
33792;SDS011;20105;48.764;9.178;2022-10-26T06:48:19;2.80;;;1.37;;
33792;SDS011;20105;48.764;9.178;2022-10-26T06:55:36;5.43;;;2.63;;
33792;SDS011;20105;48.764;9.178;2022-10-26T06:58:07;2.43;;;1.53;;
33792;SDS011;20105;48.764;9.178;2022-10-26T07:00:37;4.37;;;2.57;;
33792;SDS011;20105;48.764;9.178;2022-10-26T07:03:03;2.90;;;1.57;;
33792;SDS011;20105;48.764;9.178;2022-10-26T07:05:29;2.20;;;1.43;;
33792;SDS011;20105;48.764;9.178;2022-10-26T07:07:54;2.00;;;1.60;;
33792;SDS011;20105;48.764;9.178;2022-10-26T07:10:20;3.53;;;1.97;;
33792;SDS011;20105;48.764;9.178;2022-10-26T07:12:46;3.00;;;1.67;;
33792;SDS011;20105;48.764;9.178;2022-10-26T07:15:11;2.00;;;1.80;;
33792;SDS011;20105;48.764;9.178;2022-10-26T07:17:44;2.00;;;1.33;;
33792;SDS011;20105;48.764;9.178;2022-10-26T07:20:10;7.23;;;1.50;;
33792;SDS011;20105;48.764;9.178;2022-10-26T07:22:37;2.30;;;1.10;;
33792;SDS011;20105;48.764;9.178;2022-10-26T07:25:03;2.97;;;1.73;;
33792;SDS011;20105;48.764;9.178;2022-10-26T07:27:29;4.00;;;1.53;;
33792;SDS011;20105;48.764;9.178;2022-10-26T07:29:54;2.33;;;1.50;;
33792;SDS011;20105;48.764;9.178;2022-10-26T07:32:20;1.37;;;1.27;;
33792;SDS011;20105;48.764;9.178;2022-10-26T07:34:45;2.60;;;1.20;;
33792;SDS011;20105;48.764;9.178;2022-10-26T07:37:11;3.40;;;2.30;;
33792;SDS011;20105;48.764;9.178;2022-10-26T07:39:36;2.93;;;1.50;;
33792;SDS011;20105;48.764;9.178;2022-10-26T07:42:02;5.83;;;2.00;;
33792;SDS011;20105;48.764;9.178;2022-10-26T07:44:27;4.60;;;2.23;;
33792;SDS011;20105;48.764;9.178;2022-10-26T07:46:53;1.97;;;1.83;;
33792;SDS011;20105;48.764;9.178;2022-10-26T07:49:18;1.60;;;1.50;;
33792;SDS011;20105;48.764;9.178;2022-10-26T07:51:44;6.87;;;2.70;;
33792;SDS011;20105;48.764;9.178;2022-10-26T07:54:10;7.53;;;2.77;;
33792;SDS011;20105;48.764;9.178;2022-10-26T07:56:35;5.20;;;2.57;;
33792;SDS011;20105;48.764;9.178;2022-10-26T07:59:01;8.17;;;2.07;;
33792;SDS011;20105;48.764;9.178;2022-10-26T08:01:27;4.73;;;2.77;;
33792;SDS011;20105;48.764;9.178;2022-10-26T08:03:53;2.13;;;1.70;;
33792;SDS011;20105;48.764;9.178;2022-10-26T08:06:19;5.00;;;2.40;;
33792;SDS011;20105;48.764;9.178;2022-10-26T08:08:45;5.50;;;2.00;;
33792;SDS011;20105;48.764;9.178;2022-10-26T08:11:11;2.40;;;1.30;;
33792;SDS011;20105;48.764;9.178;2022-10-26T08:13:37;1.90;;;1.80;;
33792;SDS011;20105;48.764;9.178;2022-10-26T08:16:03;3.03;;;2.03;;
33792;SDS011;20105;48.764;9.178;2022-10-26T08:18:30;3.70;;;2.17;;
33792;SDS011;20105;48.764;9.178;2022-10-26T08:21:03;1.73;;;1.40;;
33792;SDS011;20105;48.764;9.178;2022-10-26T08:23:33;4.03;;;1.40;;
33792;SDS011;20105;48.764;9.178;2022-10-26T08:26:00;3.20;;;2.33;;
33792;SDS011;20105;48.764;9.178;2022-10-26T08:28:26;1.87;;;1.70;;
33792;SDS011;20105;48.764;9.178;2022-10-26T08:30:53;2.33;;;1.40;;
33792;SDS011;20105;48.764;9.178;2022-10-26T08:33:18;2.50;;;2.13;;
33792;SDS011;20105;48.764;9.178;2022-10-26T08:35:44;4.43;;;1.70;;
33792;SDS011;20105;48.764;9.178;2022-10-26T08:38:10;2.37;;;2.00;;
33792;SDS011;20105;48.764;9.178;2022-10-26T08:40:36;3.40;;;2.23;;
33792;SDS011;20105;48.764;9.178;2022-10-26T08:46:11;6.97;;;1.83;;
33792;SDS011;20105;48.764;9.178;2022-10-26T08:48:45;3.90;;;2.00;;
33792;SDS011;20105;48.764;9.178;2022-10-26T08:51:17;7.07;;;2.13;;
33792;SDS011;20105;48.764;9.178;2022-10-26T08:53:48;5.17;;;2.30;;
33792;SDS011;20105;48.764;9.178;2022-10-26T08:56:23;3.07;;;1.80;;
33792;SDS011;20105;48.764;9.178;2022-10-26T08:59:00;2.07;;;1.40;;
33792;SDS011;20105;48.764;9.178;2022-10-26T09:01:39;2.10;;;1.90;;
33792;SDS011;20105;48.764;9.178;2022-10-26T09:04:05;4.17;;;2.47;;
33792;SDS011;20105;48.764;9.178;2022-10-26T09:09:12;1.80;;;1.47;;
33792;SDS011;20105;48.764;9.178;2022-10-26T09:14:33;4.00;;;2.00;;
33792;SDS011;20105;48.764;9.178;2022-10-26T09:17:20;2.40;;;1.73;;
33792;SDS011;20105;48.764;9.178;2022-10-26T09:20:41;3.43;;;2.20;;
33792;SDS011;20105;48.764;9.178;2022-10-26T09:26:03;7.00;;;2.10;;
33792;SDS011;20105;48.764;9.178;2022-10-26T09:28:35;9.57;;;1.93;;
33792;SDS011;20105;48.764;9.178;2022-10-26T09:31:03;3.93;;;1.80;;
33792;SDS011;20105;48.764;9.178;2022-10-26T09:33:30;1.60;;;1.50;;
33792;SDS011;20105;48.764;9.178;2022-10-26T09:36:05;4.13;;;2.27;;
33792;SDS011;20105;48.764;9.178;2022-10-26T09:41:21;2.87;;;2.00;;
33792;SDS011;20105;48.764;9.178;2022-10-26T09:44:01;4.93;;;1.90;;
33792;SDS011;20105;48.764;9.178;2022-10-26T09:46:46;2.80;;;1.67;;
33792;SDS011;20105;48.764;9.178;2022-10-26T09:49:31;2.60;;;1.50;;
33792;SDS011;20105;48.764;9.178;2022-10-26T09:52:21;6.40;;;2.67;;
33792;SDS011;20105;48.764;9.178;2022-10-26T09:54:47;2.70;;;2.13;;
33792;SDS011;20105;48.764;9.178;2022-10-26T09:57:17;7.73;;;2.17;;
33792;SDS011;20105;48.764;9.178;2022-10-26T09:59:44;3.77;;;2.03;;
33792;SDS011;20105;48.764;9.178;2022-10-26T10:05:20;3.07;;;1.73;;
33792;SDS011;20105;48.764;9.178;2022-10-26T10:07:49;2.30;;;1.70;;
33792;SDS011;20105;48.764;9.178;2022-10-26T10:10:16;4.33;;;1.40;;
33792;SDS011;20105;48.764;9.178;2022-10-26T10:12:46;9.57;;;1.73;;
33792;SDS011;20105;48.764;9.178;2022-10-26T10:15:24;3.27;;;1.70;;
33792;SDS011;20105;48.764;9.178;2022-10-26T10:17:50;4.77;;;1.50;;
33792;SDS011;20105;48.764;9.178;2022-10-26T10:20:21;4.60;;;1.97;;
33792;SDS011;20105;48.764;9.178;2022-10-26T10:22:55;1.10;;;1.00;;
33792;SDS011;20105;48.764;9.178;2022-10-26T10:25:38;4.90;;;1.93;;
33792;SDS011;20105;48.764;9.178;2022-10-26T10:28:19;3.93;;;2.10;;
33792;SDS011;20105;48.764;9.178;2022-10-26T10:30:53;8.70;;;1.80;;
33792;SDS011;20105;48.764;9.178;2022-10-26T10:33:30;2.03;;;1.17;;
33792;SDS011;20105;48.764;9.178;2022-10-26T10:35:58;5.90;;;2.77;;
33792;SDS011;20105;48.764;9.178;2022-10-26T10:38:24;6.00;;;2.53;;
33792;SDS011;20105;48.764;9.178;2022-10-26T10:40:52;1.93;;;1.67;;
33792;SDS011;20105;48.764;9.178;2022-10-26T10:43:19;4.00;;;2.10;;
33792;SDS011;20105;48.764;9.178;2022-10-26T10:45:46;4.93;;;1.50;;
33792;SDS011;20105;48.764;9.178;2022-10-26T10:48:16;7.03;;;2.07;;
33792;SDS011;20105;48.764;9.178;2022-10-26T10:53:23;4.73;;;2.47;;
33792;SDS011;20105;48.764;9.178;2022-10-26T10:59:00;8.60;;;2.07;;
33792;SDS011;20105;48.764;9.178;2022-10-26T11:01:35;1.87;;;1.43;;
33792;SDS011;20105;48.764;9.178;2022-10-26T11:07:03;4.57;;;2.10;;
33792;SDS011;20105;48.764;9.178;2022-10-26T11:09:33;4.07;;;2.20;;
33792;SDS011;20105;48.764;9.178;2022-10-26T11:15:23;4.17;;;1.10;;
33792;SDS011;20105;48.764;9.178;2022-10-26T11:17:52;7.50;;;1.70;;
33792;SDS011;20105;48.764;9.178;2022-10-26T11:20:39;3.80;;;2.07;;
33792;SDS011;20105;48.764;9.178;2022-10-26T11:23:08;4.83;;;1.83;;
33792;SDS011;20105;48.764;9.178;2022-10-26T11:25:47;4.93;;;1.43;;
33792;SDS011;20105;48.764;9.178;2022-10-26T11:28:18;2.70;;;1.50;;
33792;SDS011;20105;48.764;9.178;2022-10-26T11:30:51;3.13;;;1.67;;
33792;SDS011;20105;48.764;9.178;2022-10-26T11:33:30;5.30;;;1.30;;
33792;SDS011;20105;48.764;9.178;2022-10-26T11:36:06;3.00;;;1.60;;
33792;SDS011;20105;48.764;9.178;2022-10-26T11:41:05;4.50;;;1.97;;
33792;SDS011;20105;48.764;9.178;2022-10-26T11:43:48;6.10;;;1.90;;
33792;SDS011;20105;48.764;9.178;2022-10-26T11:46:22;6.93;;;1.73;;
33792;SDS011;20105;48.764;9.178;2022-10-26T11:49:09;3.80;;;1.67;;
33792;SDS011;20105;48.764;9.178;2022-10-26T11:51:43;4.70;;;1.60;;
33792;SDS011;20105;48.764;9.178;2022-10-26T11:54:15;6.70;;;1.77;;
33792;SDS011;20105;48.764;9.178;2022-10-26T11:56:48;3.13;;;1.67;;
33792;SDS011;20105;48.764;9.178;2022-10-26T11:59:18;1.60;;;1.23;;
33792;SDS011;20105;48.764;9.178;2022-10-26T12:01:46;6.23;;;1.87;;
33792;SDS011;20105;48.764;9.178;2022-10-26T12:04:18;2.20;;;1.53;;
33792;SDS011;20105;48.764;9.178;2022-10-26T12:06:47;3.17;;;1.60;;
33792;SDS011;20105;48.764;9.178;2022-10-26T12:09:16;1.70;;;1.30;;
33792;SDS011;20105;48.764;9.178;2022-10-26T12:11:52;5.60;;;2.17;;
33792;SDS011;20105;48.764;9.178;2022-10-26T12:23:20;3.30;;;1.57;;
33792;SDS011;20105;48.764;9.178;2022-10-26T12:25:47;3.33;;;1.13;;
33792;SDS011;20105;48.764;9.178;2022-10-26T12:31:25;4.00;;;1.50;;
33792;SDS011;20105;48.764;9.178;2022-10-26T12:33:58;4.20;;;1.60;;
33792;SDS011;20105;48.764;9.178;2022-10-26T12:39:38;3.50;;;1.37;;
33792;SDS011;20105;48.764;9.178;2022-10-26T12:46:59;3.23;;;1.77;;
33792;SDS011;20105;48.764;9.178;2022-10-26T12:52:25;2.57;;;1.30;;
33792;SDS011;20105;48.764;9.178;2022-10-26T12:55:16;4.23;;;1.13;;
33792;SDS011;20105;48.764;9.178;2022-10-26T12:57:51;3.40;;;1.80;;
33792;SDS011;20105;48.764;9.178;2022-10-26T13:00:24;7.30;;;1.33;;
33792;SDS011;20105;48.764;9.178;2022-10-26T13:08:45;7.00;;;1.80;;
33792;SDS011;20105;48.764;9.178;2022-10-26T13:11:15;4.53;;;1.43;;
33792;SDS011;20105;48.764;9.178;2022-10-26T13:13:44;6.67;;;2.47;;
33792;SDS011;20105;48.764;9.178;2022-10-26T13:16:17;3.87;;;1.60;;
33792;SDS011;20105;48.764;9.178;2022-10-26T13:18:43;6.23;;;1.57;;
33792;SDS011;20105;48.764;9.178;2022-10-26T13:21:13;2.33;;;1.63;;
33792;SDS011;20105;48.764;9.178;2022-10-26T13:23:47;5.70;;;1.70;;
33792;SDS011;20105;48.764;9.178;2022-10-26T13:26:29;7.93;;;2.33;;
33792;SDS011;20105;48.764;9.178;2022-10-26T13:28:56;2.37;;;1.67;;
33792;SDS011;20105;48.764;9.178;2022-10-26T13:39:26;3.73;;;1.97;;
33792;SDS011;20105;48.764;9.178;2022-10-26T13:41:55;2.10;;;1.60;;
33792;SDS011;20105;48.764;9.178;2022-10-26T13:44:44;2.10;;;1.60;;
33792;SDS011;20105;48.764;9.178;2022-10-26T13:47:16;1.90;;;1.20;;
33792;SDS011;20105;48.764;9.178;2022-10-26T13:50:05;3.43;;;1.10;;
33792;SDS011;20105;48.764;9.178;2022-10-26T13:52:37;6.33;;;1.80;;
33792;SDS011;20105;48.764;9.178;2022-10-26T13:55:13;1.10;;;1.00;;
33792;SDS011;20105;48.764;9.178;2022-10-26T14:00:37;2.87;;;1.80;;
33792;SDS011;20105;48.764;9.178;2022-10-26T14:03:12;3.70;;;1.50;;
33792;SDS011;20105;48.764;9.178;2022-10-26T14:05:42;3.60;;;1.57;;
33792;SDS011;20105;48.764;9.178;2022-10-26T14:08:14;2.13;;;1.43;;
33792;SDS011;20105;48.764;9.178;2022-10-26T14:10:44;4.20;;;2.20;;
33792;SDS011;20105;48.764;9.178;2022-10-26T14:13:20;3.80;;;1.67;;
33792;SDS011;20105;48.764;9.178;2022-10-26T14:15:50;2.87;;;1.80;;
33792;SDS011;20105;48.764;9.178;2022-10-26T14:18:22;3.83;;;1.30;;
33792;SDS011;20105;48.764;9.178;2022-10-26T14:23:31;6.20;;;2.07;;
33792;SDS011;20105;48.764;9.178;2022-10-26T14:25:58;2.90;;;1.50;;
33792;SDS011;20105;48.764;9.178;2022-10-26T14:28:27;4.10;;;1.90;;
33792;SDS011;20105;48.764;9.178;2022-10-26T14:31:11;2.93;;;1.60;;
33792;SDS011;20105;48.764;9.178;2022-10-26T14:33:38;5.10;;;1.63;;
33792;SDS011;20105;48.764;9.178;2022-10-26T14:36:03;7.83;;;1.90;;
33792;SDS011;20105;48.764;9.178;2022-10-26T14:38:30;3.33;;;1.50;;
33792;SDS011;20105;48.764;9.178;2022-10-26T14:41:02;7.27;;;1.73;;
33792;SDS011;20105;48.764;9.178;2022-10-26T14:43:28;7.03;;;1.80;;
33792;SDS011;20105;48.764;9.178;2022-10-26T14:45:55;3.80;;;1.40;;
33792;SDS011;20105;48.764;9.178;2022-10-26T14:48:31;4.43;;;1.77;;
33792;SDS011;20105;48.764;9.178;2022-10-26T14:51:14;7.10;;;1.90;;
33792;SDS011;20105;48.764;9.178;2022-10-26T14:53:46;2.90;;;1.40;;
33792;SDS011;20105;48.764;9.178;2022-10-26T14:56:22;2.50;;;1.67;;
33792;SDS011;20105;48.764;9.178;2022-10-26T14:58:50;3.13;;;1.87;;
33792;SDS011;20105;48.764;9.178;2022-10-26T15:03:45;5.20;;;1.70;;
33792;SDS011;20105;48.764;9.178;2022-10-26T15:08:56;6.13;;;2.33;;
33792;SDS011;20105;48.764;9.178;2022-10-26T15:11:28;3.27;;;1.73;;
33792;SDS011;20105;48.764;9.178;2022-10-26T15:13:55;5.33;;;1.50;;
33792;SDS011;20105;48.764;9.178;2022-10-26T15:16:23;6.87;;;2.47;;
33792;SDS011;20105;48.764;9.178;2022-10-26T15:18:52;2.33;;;1.43;;
33792;SDS011;20105;48.764;9.178;2022-10-26T15:21:36;2.10;;;1.43;;
33792;SDS011;20105;48.764;9.178;2022-10-26T15:24:13;4.17;;;1.50;;
33792;SDS011;20105;48.764;9.178;2022-10-26T15:26:55;11.87;;;1.80;;
33792;SDS011;20105;48.764;9.178;2022-10-26T15:29:40;2.70;;;1.30;;
33792;SDS011;20105;48.764;9.178;2022-10-26T15:32:27;3.33;;;1.60;;
33792;SDS011;20105;48.764;9.178;2022-10-26T15:37:56;3.17;;;1.80;;
33792;SDS011;20105;48.764;9.178;2022-10-26T15:40:23;5.70;;;1.60;;
33792;SDS011;20105;48.764;9.178;2022-10-26T15:42:51;3.30;;;1.90;;
33792;SDS011;20105;48.764;9.178;2022-10-26T15:45:25;3.23;;;1.63;;
33792;SDS011;20105;48.764;9.178;2022-10-26T15:47:54;3.20;;;2.07;;
33792;SDS011;20105;48.764;9.178;2022-10-26T15:50:23;3.60;;;1.90;;
33792;SDS011;20105;48.764;9.178;2022-10-26T15:52:55;7.60;;;2.23;;
33792;SDS011;20105;48.764;9.178;2022-10-26T15:55:24;6.90;;;1.67;;
33792;SDS011;20105;48.764;9.178;2022-10-26T15:57:51;6.23;;;2.00;;
33792;SDS011;20105;48.764;9.178;2022-10-26T16:00:17;5.50;;;2.10;;
33792;SDS011;20105;48.764;9.178;2022-10-26T16:02:43;5.27;;;1.70;;
33792;SDS011;20105;48.764;9.178;2022-10-26T16:05:10;7.07;;;2.63;;
33792;SDS011;20105;48.764;9.178;2022-10-26T16:07:37;4.50;;;1.90;;
33792;SDS011;20105;48.764;9.178;2022-10-26T16:10:04;9.83;;;2.43;;
33792;SDS011;20105;48.764;9.178;2022-10-26T16:12:30;5.77;;;2.70;;
33792;SDS011;20105;48.764;9.178;2022-10-26T16:14:55;13.57;;;2.60;;
33792;SDS011;20105;48.764;9.178;2022-10-26T16:17:21;6.73;;;3.07;;
33792;SDS011;20105;48.764;9.178;2022-10-26T16:19:46;6.10;;;2.80;;
33792;SDS011;20105;48.764;9.178;2022-10-26T16:22:12;7.43;;;2.57;;
33792;SDS011;20105;48.764;9.178;2022-10-26T16:24:37;10.60;;;3.83;;
33792;SDS011;20105;48.764;9.178;2022-10-26T16:27:03;13.67;;;3.30;;
33792;SDS011;20105;48.764;9.178;2022-10-26T16:29:29;9.40;;;2.57;;
33792;SDS011;20105;48.764;9.178;2022-10-26T16:31:55;7.33;;;3.27;;
33792;SDS011;20105;48.764;9.178;2022-10-26T16:34:20;11.67;;;5.27;;
33792;SDS011;20105;48.764;9.178;2022-10-26T16:36:46;6.80;;;4.03;;
33792;SDS011;20105;48.764;9.178;2022-10-26T16:39:11;9.20;;;3.93;;
33792;SDS011;20105;48.764;9.178;2022-10-26T16:41:37;9.50;;;4.10;;
33792;SDS011;20105;48.764;9.178;2022-10-26T16:44:02;9.27;;;3.50;;
33792;SDS011;20105;48.764;9.178;2022-10-26T16:46:28;9.23;;;3.60;;
33792;SDS011;20105;48.764;9.178;2022-10-26T16:48:53;8.20;;;4.27;;
33792;SDS011;20105;48.764;9.178;2022-10-26T16:51:20;7.80;;;3.80;;
33792;SDS011;20105;48.764;9.178;2022-10-26T16:53:47;10.07;;;3.50;;
33792;SDS011;20105;48.764;9.178;2022-10-26T16:56:15;7.17;;;3.27;;
33792;SDS011;20105;48.764;9.178;2022-10-26T16:58:43;6.60;;;4.23;;
33792;SDS011;20105;48.764;9.178;2022-10-26T17:01:09;6.50;;;3.10;;
33792;SDS011;20105;48.764;9.178;2022-10-26T17:03:36;4.40;;;3.20;;
33792;SDS011;20105;48.764;9.178;2022-10-26T17:06:04;7.50;;;2.70;;
33792;SDS011;20105;48.764;9.178;2022-10-26T17:08:31;4.30;;;2.53;;
33792;SDS011;20105;48.764;9.178;2022-10-26T17:11:05;4.20;;;2.80;;